^^
Daily Summary for March 31, 2021 Units:  Both    English   Metric
Daily Weekly Monthly Yearly Custom
  High: Low: Average:
Temperature: 80.0 °F /  26.7 °C 46.0 °F /  7.8 °C 61.2 °F /  16.2 °C
Dew Point: 44.0 °F /  6.7 °C 22.0 °F /  -5.6 °C 31 °F /  -0.6 °C
Humidity: 57% 16% 35%
Wind Speed: 20mph /  32.2km/h - 3.1mph /  5km/h
Wind Gust: 20mph /  32.2km/h - -
Wind- - SE
Pressure: 30.3 in /  1026 hPa 30.2 in /  1022.6 hPa -
Precipitation: 0.000 in /  0 mm    
Historical Graphs
 
 
Tabular Data for March 31, 2021
Time Temperature Dew Point Pressure Wind Wind Speed Wind Gust Humidity Rainfall Rate (Hourly) solar
00:04 53.0 °F /  11.7 °C 26.0 °F /  -3.3 °C 30.2in /  1022.6hPa Calm     36% 0.000in /  0mm 0.00 W/m2
00:09 52.0 °F /  11.1 °C 27.0 °F /  -2.8 °C 30.2in /  1022.6hPa Calm     38% 0.000in /  0mm 0.00 W/m2
00:14 52.0 °F /  11.1 °C 27.0 °F /  -2.8 °C 30.2in /  1022.6hPa Calm     38% 0.000in /  0mm 0.00 W/m2
00:19 52.0 °F /  11.1 °C 27.0 °F /  -2.8 °C 30.2in /  1022.6hPa Calm     39% 0.000in /  0mm 0.00 W/m2
00:24 51.0 °F /  10.6 °C 28.0 °F /  -2.2 °C 30.2in /  1022.6hPa Calm     40% 0.000in /  0mm 0.00 W/m2
00:29 51.0 °F /  10.6 °C 28.0 °F /  -2.2 °C 30.2in /  1022.6hPa Calm     40% 0.000in /  0mm 0.00 W/m2
00:34 51.0 °F /  10.6 °C 27.0 °F /  -2.8 °C 30.2in /  1022.6hPa Calm     39% 0.000in /  0mm 0.00 W/m2
00:39 50.0 °F /  10 °C 26.0 °F /  -3.3 °C 30.2in /  1022.6hPa Calm     39% 0.000in /  0mm 0.00 W/m2
00:44 50.0 °F /  10 °C 26.0 °F /  -3.3 °C 30.2in /  1022.6hPa Calm     39% 0.000in /  0mm 0.00 W/m2
00:49 50.0 °F /  10 °C 26.0 °F /  -3.3 °C 30.2in /  1022.6hPa Calm     39% 0.000in /  0mm 0.00 W/m2
00:54 50.0 °F /  10 °C 26.0 °F /  -3.3 °C 30.2in /  1022.6hPa Calm     39% 0.000in /  0mm 0.00 W/m2
00:59 49.0 °F /  9.4 °C 25.0 °F /  -3.9 °C 30.2in /  1022.6hPa Calm     39% 0.000in /  0mm 0.00 W/m2
01:04 49.0 °F /  9.4 °C 26.0 °F /  -3.3 °C 30.2in /  1022.6hPa Calm     40% 0.000in /  0mm 0.00 W/m2
01:09 49.0 °F /  9.4 °C 25.0 °F /  -3.9 °C 30.2in /  1022.6hPa Calm     39% 0.000in /  0mm 0.00 W/m2
01:14 49.0 °F /  9.4 °C 25.0 °F /  -3.9 °C 30.2in /  1022.6hPa Calm     39% 0.000in /  0mm 0.00 W/m2
01:19 49.0 °F /  9.4 °C 25.0 °F /  -3.9 °C 30.2in /  1022.6hPa Calm     39% 0.000in /  0mm 0.00 W/m2
01:24 49.0 °F /  9.4 °C 24.0 °F /  -4.4 °C 30.2in /  1022.6hPa Calm     38% 0.000in /  0mm 0.00 W/m2
01:29 49.0 °F /  9.4 °C 24.0 °F /  -4.4 °C 30.2in /  1022.6hPa Calm     38% 0.000in /  0mm 0.00 W/m2
01:34 48.0 °F /  8.9 °C 25.0 °F /  -3.9 °C 30.2in /  1022.6hPa Calm     39% 0.000in /  0mm 0.00 W/m2
01:39 48.0 °F /  8.9 °C 25.0 °F /  -3.9 °C 30.2in /  1022.6hPa Calm     40% 0.000in /  0mm 0.00 W/m2
01:44 48.0 °F /  8.9 °C 26.0 °F /  -3.3 °C 30.2in /  1022.6hPa Calm     41% 0.000in /  0mm 0.00 W/m2
01:49 48.0 °F /  8.9 °C 26.0 °F /  -3.3 °C 30.2in /  1022.6hPa Calm     41% 0.000in /  0mm 0.00 W/m2
01:54 48.0 °F /  8.9 °C 26.0 °F /  -3.3 °C 30.2in /  1022.6hPa Calm     41% 0.000in /  0mm 0.00 W/m2
01:59 48.0 °F /  8.9 °C 25.0 °F /  -3.9 °C 30.2in /  1022.6hPa Calm     40% 0.000in /  0mm 0.00 W/m2
02:04 48.0 °F /  8.9 °C 24.0 °F /  -4.4 °C 30.2in /  1022.6hPa Calm     39% 0.000in /  0mm 0.00 W/m2
02:09 48.0 °F /  8.9 °C 23.0 °F /  -5 °C 30.2in /  1022.6hPa Calm     38% 0.000in /  0mm 0.00 W/m2
02:14 48.0 °F /  8.9 °C 24.0 °F /  -4.4 °C 30.2in /  1022.6hPa Calm     39% 0.000in /  0mm 0.00 W/m2
02:19 48.0 °F /  8.9 °C 24.0 °F /  -4.4 °C 30.2in /  1022.6hPa Calm     39% 0.000in /  0mm 0.00 W/m2
02:24 47.0 °F /  8.3 °C 24.0 °F /  -4.4 °C 30.2in /  1022.6hPa Calm     39% 0.000in /  0mm 0.00 W/m2
02:29 47.0 °F /  8.3 °C 22.0 °F /  -5.6 °C 30.2in /  1022.6hPa Calm     37% 0.000in /  0mm 0.00 W/m2
02:34 47.0 °F /  8.3 °C 23.0 °F /  -5 °C 30.2in /  1022.6hPa Calm     38% 0.000in /  0mm 0.00 W/m2
02:39 47.0 °F /  8.3 °C 24.0 °F /  -4.4 °C 30.2in /  1022.6hPa Calm     40% 0.000in /  0mm 0.00 W/m2
02:43 47.0 °F /  8.3 °C 26.0 °F /  -3.3 °C 30.2in /  1022.6hPa Calm     44% 0.000in /  0mm 0.00 W/m2
02:49 47.0 °F /  8.3 °C 27.0 °F /  -2.8 °C 30.2in /  1022.6hPa Calm     46% 0.000in /  0mm 0.00 W/m2
02:54 47.0 °F /  8.3 °C 27.0 °F /  -2.8 °C 30.2in /  1022.6hPa Calm     46% 0.000in /  0mm 0.00 W/m2
02:59 47.0 °F /  8.3 °C 26.0 °F /  -3.3 °C 30.2in /  1022.6hPa Calm     43% 0.000in /  0mm 0.00 W/m2
03:04 47.0 °F /  8.3 °C 24.0 °F /  -4.4 °C 30.2in /  1022.6hPa North 2mph /  3.2km/h   41% 0.000in /  0mm 0.00 W/m2
03:09 46.0 °F /  7.8 °C 23.0 °F /  -5 °C 30.2in /  1022.6hPa Calm   2mph /  3.2km/h 39% 0.000in /  0mm 0.00 W/m2
03:14 46.0 °F /  7.8 °C 24.0 °F /  -4.4 °C 30.2in /  1022.6hPa Calm     42% 0.000in /  0mm 0.00 W/m2
03:19 46.0 °F /  7.8 °C 24.0 °F /  -4.4 °C 30.2in /  1022.6hPa Calm     41% 0.000in /  0mm 0.00 W/m2
03:24 46.0 °F /  7.8 °C 24.0 °F /  -4.4 °C 30.2in /  1022.6hPa Calm     42% 0.000in /  0mm 0.00 W/m2
03:28 46.0 °F /  7.8 °C 24.0 °F /  -4.4 °C 30.2in /  1022.6hPa North 2mph /  3.2km/h   42% 0.000in /  0mm 0.00 W/m2
03:34 46.0 °F /  7.8 °C 25.0 °F /  -3.9 °C 30.2in /  1022.6hPa Calm   2mph /  3.2km/h 43% 0.000in /  0mm 0.00 W/m2
03:39 46.0 °F /  7.8 °C 26.0 °F /  -3.3 °C 30.2in /  1022.6hPa Calm     45% 0.000in /  0mm 0.00 W/m2
03:42 46.0 °F /  7.8 °C 26.0 °F /  -3.3 °C 30.2in /  1022.6hPa Calm     45% 0.000in /  0mm 0.00 W/m2
03:49 46.0 °F /  7.8 °C 25.0 °F /  -3.9 °C 30.2in /  1022.6hPa Calm     44% 0.000in /  0mm 0.00 W/m2
03:54 46.0 °F /  7.8 °C 25.0 °F /  -3.9 °C 30.2in /  1022.6hPa Calm     44% 0.000in /  0mm 0.00 W/m2
03:59 46.0 °F /  7.8 °C 25.0 °F /  -3.9 °C 30.2in /  1022.6hPa Calm     44% 0.000in /  0mm 0.00 W/m2
04:04 46.0 °F /  7.8 °C 26.0 °F /  -3.3 °C 30.2in /  1022.6hPa Calm     45% 0.000in /  0mm 0.00 W/m2
04:09 46.0 °F /  7.8 °C 26.0 °F /  -3.3 °C 30.2in /  1022.6hPa Calm     45% 0.000in /  0mm 0.00 W/m2
04:14 46.0 °F /  7.8 °C 26.0 °F /  -3.3 °C 30.2in /  1022.6hPa Calm     45% 0.000in /  0mm 0.00 W/m2
04:19 46.0 °F /  7.8 °C 26.0 °F /  -3.3 °C 30.2in /  1022.6hPa Calm     46% 0.000in /  0mm 0.00 W/m2
04:24 46.0 °F /  7.8 °C 27.0 °F /  -2.8 °C 30.2in /  1022.6hPa Calm     47% 0.000in /  0mm 0.00 W/m2
04:29 46.0 °F /  7.8 °C 27.0 °F /  -2.8 °C 30.2in /  1022.6hPa Calm     47% 0.000in /  0mm 0.00 W/m2
04:33 46.0 °F /  7.8 °C 26.0 °F /  -3.3 °C 30.2in /  1022.6hPa North 2mph /  3.2km/h   45% 0.000in /  0mm 0.00 W/m2
04:39 46.0 °F /  7.8 °C 25.0 °F /  -3.9 °C 30.2in /  1022.6hPa NNW 2mph /  3.2km/h 2mph /  3.2km/h 44% 0.000in /  0mm 0.00 W/m2
04:44 46.0 °F /  7.8 °C 23.0 °F /  -5 °C 30.2in /  1022.6hPa Calm   2mph /  3.2km/h 40% 0.000in /  0mm 0.00 W/m2
04:49 46.0 °F /  7.8 °C 25.0 °F /  -3.9 °C 30.2in /  1022.6hPa NNW 2mph /  3.2km/h   43% 0.000in /  0mm 0.00 W/m2
04:54 46.0 °F /  7.8 °C 25.0 °F /  -3.9 °C 30.2in /  1022.6hPa Calm   2mph /  3.2km/h 43% 0.000in /  0mm 0.00 W/m2
04:59 46.0 °F /  7.8 °C 24.0 °F /  -4.4 °C 30.2in /  1022.6hPa Calm     41% 0.000in /  0mm 0.00 W/m2
05:04 46.0 °F /  7.8 °C 23.0 °F /  -5 °C 30.2in /  1022.6hPa NNW 2mph /  3.2km/h 2mph /  3.2km/h 39% 0.000in /  0mm 0.00 W/m2
05:09 46.0 °F /  7.8 °C 23.0 °F /  -5 °C 30.2in /  1022.6hPa Calm     39% 0.000in /  0mm 0.00 W/m2
05:14 46.0 °F /  7.8 °C 23.0 °F /  -5 °C 30.2in /  1022.6hPa NNW 2mph /  3.2km/h   40% 0.000in /  0mm 0.00 W/m2
05:19 47.0 °F /  8.3 °C 24.0 °F /  -4.4 °C 30.2in /  1022.6hPa Calm   2mph /  3.2km/h 41% 0.000in /  0mm 0.00 W/m2
05:24 47.0 °F /  8.3 °C 24.0 °F /  -4.4 °C 30.2in /  1022.6hPa NNW 2mph /  3.2km/h 1mph /  1.6km/h 41% 0.000in /  0mm 0.00 W/m2
05:29 47.0 °F /  8.3 °C 23.0 °F /  -5 °C 30.2in /  1022.6hPa Calm   2mph /  3.2km/h 39% 0.000in /  0mm 0.00 W/m2
05:34 47.0 °F /  8.3 °C 23.0 °F /  -5 °C 30.2in /  1022.6hPa Calm     38% 0.000in /  0mm 0.00 W/m2
05:39 47.0 °F /  8.3 °C 23.0 °F /  -5 °C 30.2in /  1022.6hPa Calm     38% 0.000in /  0mm 0.00 W/m2
05:44 47.0 °F /  8.3 °C 23.0 °F /  -5 °C 30.2in /  1022.6hPa NNW 2mph /  3.2km/h   38% 0.000in /  0mm 0.00 W/m2
05:49 47.0 °F /  8.3 °C 23.0 °F /  -5 °C 30.2in /  1022.6hPa Calm   2mph /  3.2km/h 39% 0.000in /  0mm 0.00 W/m2
05:54 47.0 °F /  8.3 °C 24.0 °F /  -4.4 °C 30.2in /  1022.6hPa Calm     40% 0.000in /  0mm 0.00 W/m2
05:59 47.0 °F /  8.3 °C 24.0 °F /  -4.4 °C 30.2in /  1022.6hPa Calm     40% 0.000in /  0mm 0.00 W/m2
06:04 47.0 °F /  8.3 °C 24.0 °F /  -4.4 °C 30.2in /  1022.6hPa Calm     40% 0.000in /  0mm 0.00 W/m2
06:09 47.0 °F /  8.3 °C 24.0 °F /  -4.4 °C 30.2in /  1022.6hPa Calm     39% 0.000in /  0mm 0.00 W/m2
06:14 47.0 °F /  8.3 °C 25.0 °F /  -3.9 °C 30.2in /  1022.6hPa Calm     41% 0.000in /  0mm 0.00 W/m2
06:19 47.0 °F /  8.3 °C 24.0 °F /  -4.4 °C 30.2in /  1022.6hPa Calm     40% 0.000in /  0mm 0.00 W/m2
06:24 47.0 °F /  8.3 °C 24.0 °F /  -4.4 °C 30.2in /  1022.6hPa Calm     40% 0.000in /  0mm 0.00 W/m2
06:29 47.0 °F /  8.3 °C 24.0 °F /  -4.4 °C 30.2in /  1022.6hPa Calm     40% 0.000in /  0mm 0.00 W/m2
06:34 47.0 °F /  8.3 °C 24.0 °F /  -4.4 °C 30.2in /  1022.6hPa Calm     40% 0.000in /  0mm 0.00 W/m2
06:38 47.0 °F /  8.3 °C 25.0 °F /  -3.9 °C 30.2in /  1022.6hPa Calm     41% 0.000in /  0mm 0.00 W/m2
06:44 47.0 °F /  8.3 °C 25.0 °F /  -3.9 °C 30.2in /  1022.6hPa NNW 2mph /  3.2km/h   42% 0.000in /  0mm 0.00 W/m2
06:49 47.0 °F /  8.3 °C 25.0 °F /  -3.9 °C 30.2in /  1022.6hPa NNW 2mph /  3.2km/h 2mph /  3.2km/h 41% 0.000in /  0mm 0.00 W/m2
06:54 47.0 °F /  8.3 °C 24.0 °F /  -4.4 °C 30.2in /  1022.6hPa Calm     41% 0.000in /  0mm 0.00 W/m2
06:59 47.0 °F /  8.3 °C 24.0 °F /  -4.4 °C 30.2in /  1022.6hPa Calm     40% 0.000in /  0mm 5.00 W/m2
07:04 47.0 °F /  8.3 °C 24.0 °F /  -4.4 °C 30.3in /  1026hPa NNE 2mph /  3.2km/h 2mph /  3.2km/h 41% 0.000in /  0mm 9.00 W/m2
07:09 47.0 °F /  8.3 °C 24.0 °F /  -4.4 °C 30.3in /  1026hPa NNE 2mph /  3.2km/h   41% 0.000in /  0mm 11.00 W/m2
07:14 47.0 °F /  8.3 °C 25.0 °F /  -3.9 °C 30.3in /  1026hPa Calm     42% 0.000in /  0mm 12.00 W/m2
07:19 47.0 °F /  8.3 °C 25.0 °F /  -3.9 °C 30.3in /  1026hPa Calm     42% 0.000in /  0mm 14.00 W/m2
07:24 47.0 °F /  8.3 °C 27.0 °F /  -2.8 °C 30.3in /  1026hPa Calm     45% 0.000in /  0mm 16.00 W/m2
07:29 47.0 °F /  8.3 °C 26.0 °F /  -3.3 °C 30.3in /  1026hPa Calm   2mph /  3.2km/h 43% 0.000in /  0mm 18.00 W/m2
07:44 47.0 °F /  8.3 °C 27.0 °F /  -2.8 °C 30.3in /  1026hPa NNW 2mph /  3.2km/h   45% 0.000in /  0mm 23.00 W/m2
07:49 47.0 °F /  8.3 °C 28.0 °F /  -2.2 °C 30.3in /  1026hPa Calm     47% 0.000in /  0mm 25.00 W/m2
07:54 47.0 °F /  8.3 °C 28.0 °F /  -2.2 °C 30.3in /  1026hPa Calm     47% 0.000in /  0mm 28.00 W/m2
07:59 47.0 °F /  8.3 °C 29.0 °F /  -1.7 °C 30.3in /  1026hPa Calm     48% 0.000in /  0mm 30.00 W/m2
08:04 47.0 °F /  8.3 °C 29.0 °F /  -1.7 °C 30.3in /  1026hPa Calm     49% 0.000in /  0mm 32.00 W/m2
08:09 47.0 °F /  8.3 °C 30.0 °F /  -1.1 °C 30.3in /  1026hPa Calm     50% 0.000in /  0mm 35.00 W/m2
08:14 48.0 °F /  8.9 °C 30.0 °F /  -1.1 °C 30.3in /  1026hPa Calm     51% 0.000in /  0mm 37.00 W/m2
08:19 48.0 °F /  8.9 °C 30.0 °F /  -1.1 °C 30.3in /  1026hPa Calm     51% 0.000in /  0mm 40.00 W/m2
08:24 48.0 °F /  8.9 °C 30.0 °F /  -1.1 °C 30.3in /  1026hPa Calm     51% 0.000in /  0mm 46.00 W/m2
08:29 48.0 °F /  8.9 °C 31.0 °F /  -0.6 °C 30.3in /  1026hPa Calm     51% 0.000in /  0mm 47.00 W/m2
08:34 49.0 °F /  9.4 °C 32.0 °F /  0 °C 30.3in /  1026hPa Calm     53% 0.000in /  0mm 250.00 W/m2
08:39 49.0 °F /  9.4 °C 33.0 °F /  0.6 °C 30.3in /  1026hPa Calm     54% 0.000in /  0mm 366.00 W/m2
08:44 50.0 °F /  10 °C 34.0 °F /  1.1 °C 30.3in /  1026hPa Calm     55% 0.000in /  0mm 385.00 W/m2
08:49 50.0 °F /  10 °C 34.0 °F /  1.1 °C 30.3in /  1026hPa NE 2mph /  3.2km/h   55% 0.000in /  0mm 406.00 W/m2
08:54 51.0 °F /  10.6 °C 35.0 °F /  1.7 °C 30.3in /  1026hPa Calm   2mph /  3.2km/h 53% 0.000in /  0mm 424.00 W/m2
08:59 52.0 °F /  11.1 °C 35.0 °F /  1.7 °C 30.3in /  1026hPa Calm     53% 0.000in /  0mm 443.00 W/m2
09:04 53.0 °F /  11.7 °C 33.0 °F /  0.6 °C 30.3in /  1026hPa NE 2mph /  3.2km/h   48% 0.000in /  0mm 461.00 W/m2
09:09 55.0 °F /  12.8 °C 33.0 °F /  0.6 °C 30.3in /  1026hPa NNE 2mph /  3.2km/h 2mph /  3.2km/h 45% 0.000in /  0mm 478.00 W/m2
09:14 56.0 °F /  13.3 °C 33.0 °F /  0.6 °C 30.3in /  1026hPa Calm   2mph /  3.2km/h 43% 0.000in /  0mm 490.00 W/m2
09:19 57.0 °F /  13.9 °C 33.0 °F /  0.6 °C 30.3in /  1026hPa NNE 4mph /  6.4km/h 3mph /  4.8km/h 41% 0.000in /  0mm 517.00 W/m2
09:24 58.0 °F /  14.4 °C 33.0 °F /  0.6 °C 30.3in /  1026hPa NNW 2mph /  3.2km/h 2mph /  3.2km/h 39% 0.000in /  0mm 519.00 W/m2
09:29 59.0 °F /  15 °C 29.0 °F /  -1.7 °C 30.3in /  1026hPa North 2mph /  3.2km/h 2mph /  3.2km/h 32% 0.000in /  0mm 550.00 W/m2
09:34 60.0 °F /  15.6 °C 29.0 °F /  -1.7 °C 30.3in /  1026hPa NNE 2mph /  3.2km/h 2mph /  3.2km/h 31% 0.000in /  0mm 566.00 W/m2
09:39 62.0 °F /  16.7 °C 28.0 °F /  -2.2 °C 30.3in /  1026hPa Calm   2mph /  3.2km/h 29% 0.000in /  0mm 584.00 W/m2
09:44 63.0 °F /  17.2 °C 29.0 °F /  -1.7 °C 30.3in /  1026hPa NNE 2mph /  3.2km/h   29% 0.000in /  0mm 599.00 W/m2
09:49 64.0 °F /  17.8 °C 30.0 °F /  -1.1 °C 30.3in /  1026hPa ENE 2mph /  3.2km/h 2mph /  3.2km/h 28% 0.000in /  0mm 613.00 W/m2
09:54 65.0 °F /  18.3 °C 29.0 °F /  -1.7 °C 30.3in /  1026hPa Calm   2mph /  3.2km/h 27% 0.000in /  0mm 633.00 W/m2
09:59 66.0 °F /  18.9 °C 30.0 °F /  -1.1 °C 30.3in /  1026hPa ESE 6mph /  9.7km/h 2mph /  3.2km/h 27% 0.000in /  0mm 647.00 W/m2
10:04 67.0 °F /  19.4 °C 29.0 °F /  -1.7 °C 30.3in /  1026hPa SE 2mph /  3.2km/h 6mph /  9.7km/h 25% 0.000in /  0mm 663.00 W/m2
10:09 68.0 °F /  20 °C 30.0 °F /  -1.1 °C 30.3in /  1026hPa SE 6mph /  9.7km/h 2mph /  3.2km/h 24% 0.000in /  0mm 679.00 W/m2
10:14 68.0 °F /  20 °C 29.0 °F /  -1.7 °C 30.3in /  1026hPa SE 2mph /  3.2km/h 6mph /  9.7km/h 23% 0.000in /  0mm 689.00 W/m2
10:19 69.0 °F /  20.6 °C 30.0 °F /  -1.1 °C 30.3in /  1026hPa NE 4mph /  6.4km/h 2mph /  3.2km/h 24% 0.000in /  0mm 705.00 W/m2
10:24 70.0 °F /  21.1 °C 30.0 °F /  -1.1 °C 30.3in /  1026hPa NE 7mph /  11.3km/h 3mph /  4.8km/h 23% 0.000in /  0mm 717.00 W/m2
10:29 70.0 °F /  21.1 °C 29.0 °F /  -1.7 °C 30.2in /  1022.6hPa East 4mph /  6.4km/h 7mph /  11.3km/h 22% 0.000in /  0mm 735.00 W/m2
10:34 71.0 °F /  21.7 °C 29.0 °F /  -1.7 °C 30.2in /  1022.6hPa SE 4mph /  6.4km/h 2mph /  3.2km/h 21% 0.000in /  0mm 744.00 W/m2
10:39 71.0 °F /  21.7 °C 27.0 °F /  -2.8 °C 30.2in /  1022.6hPa NE 2mph /  3.2km/h 3mph /  4.8km/h 19% 0.000in /  0mm 758.00 W/m2
10:44 72.0 °F /  22.2 °C 28.0 °F /  -2.2 °C 30.2in /  1022.6hPa NNE 7mph /  11.3km/h 2mph /  3.2km/h 20% 0.000in /  0mm 766.00 W/m2
10:49 72.0 °F /  22.2 °C 29.0 °F /  -1.7 °C 30.2in /  1022.6hPa SE 2mph /  3.2km/h 7mph /  11.3km/h 20% 0.000in /  0mm 780.00 W/m2
10:54 73.0 °F /  22.8 °C 29.0 °F /  -1.7 °C 30.2in /  1022.6hPa SE 11mph /  17.7km/h 3mph /  4.8km/h 20% 0.000in /  0mm 791.00 W/m2
10:59 73.0 °F /  22.8 °C 27.0 °F /  -2.8 °C 30.2in /  1022.6hPa SE 6mph /  9.7km/h 10mph /  16.1km/h 18% 0.000in /  0mm 802.00 W/m2
11:04 73.0 °F /  22.8 °C 29.0 °F /  -1.7 °C 30.2in /  1022.6hPa SE 2mph /  3.2km/h 6mph /  9.7km/h 19% 0.000in /  0mm 809.00 W/m2
11:09 74.0 °F /  23.3 °C 31.0 °F /  -0.6 °C 30.2in /  1022.6hPa ENE 5mph /  8km/h 2mph /  3.2km/h 21% 0.000in /  0mm 819.00 W/m2
11:14 74.0 °F /  23.3 °C 30.0 °F /  -1.1 °C 30.2in /  1022.6hPa ESE 7mph /  11.3km/h 6mph /  9.7km/h 20% 0.000in /  0mm 828.00 W/m2
11:19 74.0 °F /  23.3 °C 30.0 °F /  -1.1 °C 30.2in /  1022.6hPa SSE 7mph /  11.3km/h 7mph /  11.3km/h 20% 0.000in /  0mm 837.00 W/m2
11:24 74.0 °F /  23.3 °C 31.0 °F /  -0.6 °C 30.2in /  1022.6hPa SSE 7mph /  11.3km/h 6mph /  9.7km/h 20% 0.000in /  0mm 844.00 W/m2
11:29 75.0 °F /  23.9 °C 32.0 °F /  0 °C 30.2in /  1022.6hPa ENE 9mph /  14.5km/h 7mph /  11.3km/h 21% 0.000in /  0mm 854.00 W/m2
11:34 75.0 °F /  23.9 °C 31.0 °F /  -0.6 °C 30.2in /  1022.6hPa East 7mph /  11.3km/h 9mph /  14.5km/h 20% 0.000in /  0mm 860.00 W/m2
11:39 75.0 °F /  23.9 °C 28.0 °F /  -2.2 °C 30.2in /  1022.6hPa SE 13mph /  20.9km/h 7mph /  11.3km/h 18% 0.000in /  0mm 865.00 W/m2
11:44 75.0 °F /  23.9 °C 28.0 °F /  -2.2 °C 30.2in /  1022.6hPa ESE 7mph /  11.3km/h 13mph /  20.9km/h 18% 0.000in /  0mm 875.00 W/m2
11:49 75.0 °F /  23.9 °C 28.0 °F /  -2.2 °C 30.2in /  1022.6hPa East 7mph /  11.3km/h 7mph /  11.3km/h 18% 0.000in /  0mm 879.00 W/m2
11:54 75.0 °F /  23.9 °C 28.0 °F /  -2.2 °C 30.2in /  1022.6hPa SE 11mph /  17.7km/h 7mph /  11.3km/h 18% 0.000in /  0mm 886.00 W/m2
11:59 75.0 °F /  23.9 °C 27.0 °F /  -2.8 °C 30.2in /  1022.6hPa SE 10mph /  16.1km/h 10mph /  16.1km/h 17% 0.000in /  0mm 889.00 W/m2
12:04 75.0 °F /  23.9 °C 27.0 °F /  -2.8 °C 30.2in /  1022.6hPa SSE 13mph /  20.9km/h 13mph /  20.9km/h 17% 0.000in /  0mm 893.00 W/m2
12:09 75.0 °F /  23.9 °C 26.0 °F /  -3.3 °C 30.2in /  1022.6hPa ESE 11mph /  17.7km/h 13mph /  20.9km/h 16% 0.000in /  0mm 896.00 W/m2
12:14 75.0 °F /  23.9 °C 29.0 °F /  -1.7 °C 30.2in /  1022.6hPa ESE 7mph /  11.3km/h 10mph /  16.1km/h 18% 0.000in /  0mm 902.00 W/m2
12:19 75.0 °F /  23.9 °C 27.0 °F /  -2.8 °C 30.2in /  1022.6hPa SSE 9mph /  14.5km/h 7mph /  11.3km/h 17% 0.000in /  0mm 904.00 W/m2
12:24 75.0 °F /  23.9 °C 26.0 °F /  -3.3 °C 30.2in /  1022.6hPa SSE 12mph /  19.3km/h 9mph /  14.5km/h 16% 0.000in /  0mm 909.00 W/m2
12:29 76.0 °F /  24.4 °C 29.0 °F /  -1.7 °C 30.2in /  1022.6hPa ESE 13mph /  20.9km/h 13mph /  20.9km/h 18% 0.000in /  0mm 911.00 W/m2
12:34 76.0 °F /  24.4 °C 28.0 °F /  -2.2 °C 30.2in /  1022.6hPa SE 7mph /  11.3km/h 10mph /  16.1km/h 17% 0.000in /  0mm 912.00 W/m2
12:39 76.0 °F /  24.4 °C 26.0 °F /  -3.3 °C 30.2in /  1022.6hPa South 11mph /  17.7km/h 7mph /  11.3km/h 16% 0.000in /  0mm 914.00 W/m2
12:44 76.0 °F /  24.4 °C 29.0 °F /  -1.7 °C 30.2in /  1022.6hPa SW 11mph /  17.7km/h 10mph /  16.1km/h 18% 0.000in /  0mm 916.00 W/m2
12:49 76.0 °F /  24.4 °C 27.0 °F /  -2.8 °C 30.2in /  1022.6hPa SSE 18mph /  29km/h 7mph /  11.3km/h 16% 0.000in /  0mm 918.00 W/m2
12:54 76.0 °F /  24.4 °C 27.0 °F /  -2.8 °C 30.2in /  1022.6hPa SSE 16mph /  25.7km/h 17mph /  27.4km/h 16% 0.000in /  0mm 919.00 W/m2
12:59 76.0 °F /  24.4 °C 28.0 °F /  -2.2 °C 30.2in /  1022.6hPa SSE 11mph /  17.7km/h 16mph /  25.7km/h 17% 0.000in /  0mm 916.00 W/m2
13:04 76.0 °F /  24.4 °C 28.0 °F /  -2.2 °C 30.2in /  1022.6hPa ESE 9mph /  14.5km/h 6mph /  9.7km/h 17% 0.000in /  0mm 914.00 W/m2
13:09 77.0 °F /  25 °C 32.0 °F /  0 °C 30.2in /  1022.6hPa NE 7mph /  11.3km/h 9mph /  14.5km/h 19% 0.000in /  0mm 916.00 W/m2
13:14 77.0 °F /  25 °C 30.0 °F /  -1.1 °C 30.2in /  1022.6hPa SSE 7mph /  11.3km/h 6mph /  9.7km/h 18% 0.000in /  0mm 914.00 W/m2
13:19 78.0 °F /  25.6 °C 32.0 °F /  0 °C 30.2in /  1022.6hPa SSE 7mph /  11.3km/h 7mph /  11.3km/h 19% 0.000in /  0mm 907.00 W/m2
13:24 78.0 °F /  25.6 °C 32.0 °F /  0 °C 30.2in /  1022.6hPa SSE 11mph /  17.7km/h 10mph /  16.1km/h 19% 0.000in /  0mm 907.00 W/m2
13:29 78.0 °F /  25.6 °C 31.0 °F /  -0.6 °C 30.2in /  1022.6hPa ESE 18mph /  29km/h 10mph /  16.1km/h 18% 0.000in /  0mm 904.00 W/m2
13:34 78.0 °F /  25.6 °C 28.0 °F /  -2.2 °C 30.2in /  1022.6hPa SSE 13mph /  20.9km/h 17mph /  27.4km/h 16% 0.000in /  0mm 900.00 W/m2
13:39 78.0 °F /  25.6 °C 30.0 °F /  -1.1 °C 30.2in /  1022.6hPa SE 9mph /  14.5km/h 13mph /  20.9km/h 17% 0.000in /  0mm 893.00 W/m2
13:44 78.0 °F /  25.6 °C 31.0 °F /  -0.6 °C 30.2in /  1022.6hPa ESE 7mph /  11.3km/h 9mph /  14.5km/h 18% 0.000in /  0mm 888.00 W/m2
13:49 78.0 °F /  25.6 °C 31.0 °F /  -0.6 °C 30.2in /  1022.6hPa SE 11mph /  17.7km/h 10mph /  16.1km/h 18% 0.000in /  0mm 882.00 W/m2
13:54 78.0 °F /  25.6 °C 31.0 °F /  -0.6 °C 30.2in /  1022.6hPa South 13mph /  20.9km/h 9mph /  14.5km/h 18% 0.000in /  0mm 879.00 W/m2
13:59 78.0 °F /  25.6 °C 30.0 °F /  -1.1 °C 30.2in /  1022.6hPa SSW 6mph /  9.7km/h 13mph /  20.9km/h 17% 0.000in /  0mm 874.00 W/m2
14:04 78.0 °F /  25.6 °C 34.0 °F /  1.1 °C 30.2in /  1022.6hPa ENE 6mph /  9.7km/h 6mph /  9.7km/h 20% 0.000in /  0mm 867.00 W/m2
14:09 78.0 °F /  25.6 °C 34.0 °F /  1.1 °C 30.2in /  1022.6hPa East 9mph /  14.5km/h 6mph /  9.7km/h 20% 0.000in /  0mm 860.00 W/m2
14:14 78.0 °F /  25.6 °C 30.0 °F /  -1.1 °C 30.2in /  1022.6hPa SE 20mph /  32.2km/h 18mph /  29km/h 17% 0.000in /  0mm 856.00 W/m2
14:19 78.0 °F /  25.6 °C 30.0 °F /  -1.1 °C 30.2in /  1022.6hPa SSW 9mph /  14.5km/h 20mph /  32.2km/h 17% 0.000in /  0mm 847.00 W/m2
14:24 78.0 °F /  25.6 °C 31.0 °F /  -0.6 °C 30.2in /  1022.6hPa SSE 14mph /  22.5km/h 9mph /  14.5km/h 18% 0.000in /  0mm 838.00 W/m2
14:29 78.0 °F /  25.6 °C 31.0 °F /  -0.6 °C 30.2in /  1022.6hPa South 11mph /  17.7km/h 14mph /  22.5km/h 18% 0.000in /  0mm 831.00 W/m2
14:34 78.0 °F /  25.6 °C 30.0 °F /  -1.1 °C 30.2in /  1022.6hPa SE 16mph /  25.7km/h 10mph /  16.1km/h 17% 0.000in /  0mm 821.00 W/m2
14:39 79.0 °F /  26.1 °C 32.0 °F /  0 °C 30.2in /  1022.6hPa NW 2mph /  3.2km/h 16mph /  25.7km/h 18% 0.000in /  0mm 814.00 W/m2
14:44 79.0 °F /  26.1 °C 32.0 °F /  0 °C 30.2in /  1022.6hPa ENE 7mph /  11.3km/h 2mph /  3.2km/h 18% 0.000in /  0mm 802.00 W/m2
14:49 80.0 °F /  26.7 °C 32.0 °F /  0 °C 30.2in /  1022.6hPa SSW 7mph /  11.3km/h 7mph /  11.3km/h 18% 0.000in /  0mm 795.00 W/m2
14:54 80.0 °F /  26.7 °C 31.0 °F /  -0.6 °C 30.2in /  1022.6hPa South 11mph /  17.7km/h 9mph /  14.5km/h 17% 0.000in /  0mm 788.00 W/m2
14:59 80.0 °F /  26.7 °C 32.0 °F /  0 °C 30.2in /  1022.6hPa SE 9mph /  14.5km/h 10mph /  16.1km/h 18% 0.000in /  0mm 773.00 W/m2
15:04 79.0 °F /  26.1 °C 32.0 °F /  0 °C 30.2in /  1022.6hPa WSW 9mph /  14.5km/h 9mph /  14.5km/h 18% 0.000in /  0mm 761.00 W/m2
15:09 79.0 °F /  26.1 °C 32.0 °F /  0 °C 30.2in /  1022.6hPa SE 16mph /  25.7km/h 9mph /  14.5km/h 18% 0.000in /  0mm 751.00 W/m2
15:14 79.0 °F /  26.1 °C 32.0 °F /  0 °C 30.2in /  1022.6hPa SSE 9mph /  14.5km/h 16mph /  25.7km/h 18% 0.000in /  0mm 738.00 W/m2
15:19 79.0 °F /  26.1 °C 29.0 °F /  -1.7 °C 30.2in /  1022.6hPa South 11mph /  17.7km/h 9mph /  14.5km/h 16% 0.000in /  0mm 724.00 W/m2
15:24 79.0 °F /  26.1 °C 30.0 °F /  -1.1 °C 30.2in /  1022.6hPa SSE 9mph /  14.5km/h 10mph /  16.1km/h 17% 0.000in /  0mm 714.00 W/m2
15:29 79.0 °F /  26.1 °C 30.0 °F /  -1.1 °C 30.2in /  1022.6hPa ENE 9mph /  14.5km/h 9mph /  14.5km/h 17% 0.000in /  0mm 701.00 W/m2
15:34 79.0 °F /  26.1 °C 30.0 °F /  -1.1 °C 30.2in /  1022.6hPa SSE 11mph /  17.7km/h 10mph /  16.1km/h 17% 0.000in /  0mm 686.00 W/m2
15:39 79.0 °F /  26.1 °C 32.0 °F /  0 °C 30.2in /  1022.6hPa ESE 6mph /  9.7km/h 9mph /  14.5km/h 18% 0.000in /  0mm 671.00 W/m2
15:44 79.0 °F /  26.1 °C 33.0 °F /  0.6 °C 30.2in /  1022.6hPa ENE 6mph /  9.7km/h 6mph /  9.7km/h 19% 0.000in /  0mm 661.00 W/m2
15:49 80.0 °F /  26.7 °C 34.0 °F /  1.1 °C 30.2in /  1022.6hPa ENE 6mph /  9.7km/h 6mph /  9.7km/h 19% 0.000in /  0mm 649.00 W/m2
15:54 80.0 °F /  26.7 °C 31.0 °F /  -0.6 °C 30.2in /  1022.6hPa SE 16mph /  25.7km/h 16mph /  25.7km/h 17% 0.000in /  0mm 635.00 W/m2
15:59 80.0 °F /  26.7 °C 31.0 °F /  -0.6 °C 30.2in /  1022.6hPa SE 9mph /  14.5km/h 16mph /  25.7km/h 17% 0.000in /  0mm 621.00 W/m2
16:04 80.0 °F /  26.7 °C 31.0 °F /  -0.6 °C 30.2in /  1022.6hPa SSE 13mph /  20.9km/h 8mph /  12.9km/h 17% 0.000in /  0mm 605.00 W/m2
16:09 80.0 °F /  26.7 °C 30.0 °F /  -1.1 °C 30.2in /  1022.6hPa SSE 9mph /  14.5km/h 13mph /  20.9km/h 16% 0.000in /  0mm 589.00 W/m2
16:14 80.0 °F /  26.7 °C 31.0 °F /  -0.6 °C 30.2in /  1022.6hPa East 5mph /  8km/h 9mph /  14.5km/h 17% 0.000in /  0mm 573.00 W/m2
16:19 80.0 °F /  26.7 °C 31.0 °F /  -0.6 °C 30.2in /  1022.6hPa SE 11mph /  17.7km/h 10mph /  16.1km/h 17% 0.000in /  0mm 559.00 W/m2
16:24 80.0 °F /  26.7 °C 33.0 °F /  0.6 °C 30.2in /  1022.6hPa ESE 2mph /  3.2km/h 10mph /  16.1km/h 18% 0.000in /  0mm 545.00 W/m2
16:29 80.0 °F /  26.7 °C 31.0 °F /  -0.6 °C 30.2in /  1022.6hPa South 6mph /  9.7km/h 2mph /  3.2km/h 17% 0.000in /  0mm 527.00 W/m2
16:34 80.0 °F /  26.7 °C 33.0 °F /  0.6 °C 30.2in /  1022.6hPa SSE 2mph /  3.2km/h 6mph /  9.7km/h 18% 0.000in /  0mm 512.00 W/m2
16:39 80.0 °F /  26.7 °C 31.0 °F /  -0.6 °C 30.2in /  1022.6hPa South 9mph /  14.5km/h 8mph /  12.9km/h 17% 0.000in /  0mm 492.00 W/m2
16:44 80.0 °F /  26.7 °C 33.0 °F /  0.6 °C 30.2in /  1022.6hPa SSE 9mph /  14.5km/h 9mph /  14.5km/h 18% 0.000in /  0mm 475.00 W/m2
16:49 80.0 °F /  26.7 °C 33.0 °F /  0.6 °C 30.2in /  1022.6hPa East 4mph /  6.4km/h 6mph /  9.7km/h 18% 0.000in /  0mm 461.00 W/m2
16:54 80.0 °F /  26.7 °C 30.0 °F /  -1.1 °C 30.2in /  1022.6hPa SE 6mph /  9.7km/h 3mph /  4.8km/h 16% 0.000in /  0mm 443.00 W/m2
16:59 80.0 °F /  26.7 °C 33.0 °F /  0.6 °C 30.2in /  1022.6hPa SE 9mph /  14.5km/h 7mph /  11.3km/h 18% 0.000in /  0mm 427.00 W/m2
17:03 80.0 °F /  26.7 °C 31.0 °F /  -0.6 °C 30.2in /  1022.6hPa SSE 7mph /  11.3km/h 9mph /  14.5km/h 17% 0.000in /  0mm 410.00 W/m2
17:09 80.0 °F /  26.7 °C 30.0 °F /  -1.1 °C 30.2in /  1022.6hPa SE 4mph /  6.4km/h 7mph /  11.3km/h 16% 0.000in /  0mm 390.00 W/m2
17:14 79.0 °F /  26.1 °C 31.0 °F /  -0.6 °C 30.2in /  1022.6hPa SE 4mph /  6.4km/h 2mph /  3.2km/h 17% 0.000in /  0mm 97.00 W/m2
17:19 79.0 °F /  26.1 °C 33.0 °F /  0.6 °C 30.2in /  1022.6hPa East 4mph /  6.4km/h 3mph /  4.8km/h 19% 0.000in /  0mm 62.00 W/m2
17:24 79.0 °F /  26.1 °C 33.0 °F /  0.6 °C 30.2in /  1022.6hPa ESE 6mph /  9.7km/h 3mph /  4.8km/h 19% 0.000in /  0mm 65.00 W/m2
17:29 78.0 °F /  25.6 °C 31.0 °F /  -0.6 °C 30.2in /  1022.6hPa SSE 7mph /  11.3km/h 6mph /  9.7km/h 18% 0.000in /  0mm 58.00 W/m2
17:34 77.0 °F /  25 °C 32.0 °F /  0 °C 30.2in /  1022.6hPa SE 6mph /  9.7km/h 7mph /  11.3km/h 19% 0.000in /  0mm 53.00 W/m2
17:39 77.0 °F /  25 °C 32.0 °F /  0 °C 30.2in /  1022.6hPa SE 6mph /  9.7km/h 6mph /  9.7km/h 20% 0.000in /  0mm 65.00 W/m2
17:44 76.0 °F /  24.4 °C 34.0 °F /  1.1 °C 30.2in /  1022.6hPa Calm   6mph /  9.7km/h 22% 0.000in /  0mm 51.00 W/m2
17:49 76.0 °F /  24.4 °C 34.0 °F /  1.1 °C 30.2in /  1022.6hPa SSE 6mph /  9.7km/h 3mph /  4.8km/h 22% 0.000in /  0mm 47.00 W/m2
17:54 75.0 °F /  23.9 °C 34.0 °F /  1.1 °C 30.2in /  1022.6hPa SE 2mph /  3.2km/h 6mph /  9.7km/h 22% 0.000in /  0mm 42.00 W/m2
17:59 75.0 °F /  23.9 °C 34.0 °F /  1.1 °C 30.2in /  1022.6hPa SE 6mph /  9.7km/h 2mph /  3.2km/h 23% 0.000in /  0mm 42.00 W/m2
18:04 75.0 °F /  23.9 °C 33.0 °F /  0.6 °C 30.2in /  1022.6hPa South 7mph /  11.3km/h 7mph /  11.3km/h 22% 0.000in /  0mm 35.00 W/m2
18:09 74.0 °F /  23.3 °C 35.0 °F /  1.7 °C 30.2in /  1022.6hPa SSE 6mph /  9.7km/h 7mph /  11.3km/h 24% 0.000in /  0mm 33.00 W/m2
18:14 74.0 °F /  23.3 °C 35.0 °F /  1.7 °C 30.2in /  1022.6hPa SSE 2mph /  3.2km/h 3mph /  4.8km/h 25% 0.000in /  0mm 32.00 W/m2
18:19 73.0 °F /  22.8 °C 35.0 °F /  1.7 °C 30.2in /  1022.6hPa SSE 4mph /  6.4km/h 2mph /  3.2km/h 25% 0.000in /  0mm 30.00 W/m2
18:24 73.0 °F /  22.8 °C 36.0 °F /  2.2 °C 30.2in /  1022.6hPa SSE 6mph /  9.7km/h 6mph /  9.7km/h 26% 0.000in /  0mm 28.00 W/m2
18:29 73.0 °F /  22.8 °C 36.0 °F /  2.2 °C 30.2in /  1022.6hPa SE 4mph /  6.4km/h 3mph /  4.8km/h 26% 0.000in /  0mm 26.00 W/m2
18:34 72.0 °F /  22.2 °C 36.0 °F /  2.2 °C 30.2in /  1022.6hPa SSE 6mph /  9.7km/h 3mph /  4.8km/h 27% 0.000in /  0mm 25.00 W/m2
18:39 72.0 °F /  22.2 °C 34.0 °F /  1.1 °C 30.2in /  1022.6hPa SSE 4mph /  6.4km/h 6mph /  9.7km/h 25% 0.000in /  0mm 23.00 W/m2
18:44 72.0 °F /  22.2 °C 36.0 °F /  2.2 °C 30.2in /  1022.6hPa SSE 2mph /  3.2km/h 3mph /  4.8km/h 27% 0.000in /  0mm 21.00 W/m2
18:49 71.0 °F /  21.7 °C 38.0 °F /  3.3 °C 30.2in /  1022.6hPa SSE 2mph /  3.2km/h 2mph /  3.2km/h 30% 0.000in /  0mm 19.00 W/m2
18:54 71.0 °F /  21.7 °C 40.0 °F /  4.4 °C 30.2in /  1022.6hPa SSE 2mph /  3.2km/h   32% 0.000in /  0mm 16.00 W/m2
18:58 71.0 °F /  21.7 °C 40.0 °F /  4.4 °C 30.2in /  1022.6hPa SSE 2mph /  3.2km/h 2mph /  3.2km/h 33% 0.000in /  0mm 14.00 W/m2
19:04 70.0 °F /  21.1 °C 43.0 °F /  6.1 °C 30.2in /  1022.6hPa Calm   2mph /  3.2km/h 37% 0.000in /  0mm 12.00 W/m2
19:09 70.0 °F /  21.1 °C 42.0 °F /  5.6 °C 30.2in /  1022.6hPa Calm     37% 0.000in /  0mm 11.00 W/m2
19:14 70.0 °F /  21.1 °C 42.0 °F /  5.6 °C 30.2in /  1022.6hPa Calm     37% 0.000in /  0mm 9.00 W/m2
19:19 69.0 °F /  20.6 °C 43.0 °F /  6.1 °C 30.2in /  1022.6hPa Calm     39% 0.000in /  0mm 7.00 W/m2
19:24 68.0 °F /  20 °C 43.0 °F /  6.1 °C 30.2in /  1022.6hPa Calm     41% 0.000in /  0mm 5.00 W/m2
19:29 68.0 °F /  20 °C 44.0 °F /  6.7 °C 30.2in /  1022.6hPa Calm     43% 0.000in /  0mm 0.00 W/m2
19:34 67.0 °F /  19.4 °C 44.0 °F /  6.7 °C 30.2in /  1022.6hPa Calm     43% 0.000in /  0mm 0.00 W/m2
19:39 66.0 °F /  18.9 °C 42.0 °F /  5.6 °C 30.2in /  1022.6hPa Calm     42% 0.000in /  0mm 0.00 W/m2
19:44 65.0 °F /  18.3 °C 42.0 °F /  5.6 °C 30.2in /  1022.6hPa Calm     43% 0.000in /  0mm 0.00 W/m2
19:49 65.0 °F /  18.3 °C 42.0 °F /  5.6 °C 30.2in /  1022.6hPa Calm     44% 0.000in /  0mm 0.00 W/m2
19:54 64.0 °F /  17.8 °C 42.0 °F /  5.6 °C 30.2in /  1022.6hPa Calm     45% 0.000in /  0mm 0.00 W/m2
19:59 63.0 °F /  17.2 °C 42.0 °F /  5.6 °C 30.2in /  1022.6hPa Calm     45% 0.000in /  0mm 0.00 W/m2
20:04 63.0 °F /  17.2 °C 42.0 °F /  5.6 °C 30.2in /  1022.6hPa Calm     47% 0.000in /  0mm 0.00 W/m2
20:09 62.0 °F /  16.7 °C 42.0 °F /  5.6 °C 30.2in /  1022.6hPa Calm     47% 0.000in /  0mm 0.00 W/m2
20:14 62.0 °F /  16.7 °C 41.0 °F /  5 °C 30.2in /  1022.6hPa Calm     46% 0.000in /  0mm 0.00 W/m2
20:19 61.0 °F /  16.1 °C 41.0 °F /  5 °C 30.2in /  1022.6hPa Calm     48% 0.000in /  0mm 0.00 W/m2
20:24 61.0 °F /  16.1 °C 42.0 °F /  5.6 °C 30.2in /  1022.6hPa Calm     50% 0.000in /  0mm 0.00 W/m2
20:29 60.0 °F /  15.6 °C 42.0 °F /  5.6 °C 30.2in /  1022.6hPa Calm     50% 0.000in /  0mm 0.00 W/m2
20:34 60.0 °F /  15.6 °C 41.0 °F /  5 °C 30.2in /  1022.6hPa Calm     49% 0.000in /  0mm 0.00 W/m2
20:39 60.0 °F /  15.6 °C 41.0 °F /  5 °C 30.2in /  1022.6hPa Calm     50% 0.000in /  0mm 0.00 W/m2
20:44 59.0 °F /  15 °C 40.0 °F /  4.4 °C 30.2in /  1022.6hPa Calm     50% 0.000in /  0mm 0.00 W/m2
20:49 59.0 °F /  15 °C 40.0 °F /  4.4 °C 30.2in /  1022.6hPa Calm     50% 0.000in /  0mm 0.00 W/m2
20:54 58.0 °F /  14.4 °C 40.0 °F /  4.4 °C 30.2in /  1022.6hPa Calm     50% 0.000in /  0mm 0.00 W/m2
20:59 58.0 °F /  14.4 °C 40.0 °F /  4.4 °C 30.2in /  1022.6hPa Calm     51% 0.000in /  0mm 0.00 W/m2
21:04 58.0 °F /  14.4 °C 40.0 °F /  4.4 °C 30.2in /  1022.6hPa Calm     52% 0.000in /  0mm 0.00 W/m2
21:09 58.0 °F /  14.4 °C 40.0 °F /  4.4 °C 30.2in /  1022.6hPa Calm     52% 0.000in /  0mm 0.00 W/m2
21:14 58.0 °F /  14.4 °C 40.0 °F /  4.4 °C 30.2in /  1022.6hPa Calm     51% 0.000in /  0mm 0.00 W/m2
21:19 57.0 °F /  13.9 °C 40.0 °F /  4.4 °C 30.2in /  1022.6hPa Calm     52% 0.000in /  0mm 0.00 W/m2
21:24 57.0 °F /  13.9 °C 40.0 °F /  4.4 °C 30.2in /  1022.6hPa Calm     52% 0.000in /  0mm 0.00 W/m2
21:29 57.0 °F /  13.9 °C 39.0 °F /  3.9 °C 30.2in /  1022.6hPa Calm     52% 0.000in /  0mm 0.00 W/m2
21:34 57.0 °F /  13.9 °C 39.0 °F /  3.9 °C 30.2in /  1022.6hPa Calm     51% 0.000in /  0mm 0.00 W/m2
21:39 57.0 °F /  13.9 °C 39.0 °F /  3.9 °C 30.2in /  1022.6hPa Calm     52% 0.000in /  0mm 0.00 W/m2
21:44 57.0 °F /  13.9 °C 39.0 °F /  3.9 °C 30.2in /  1022.6hPa Calm     52% 0.000in /  0mm 0.00 W/m2
21:49 56.0 °F /  13.3 °C 39.0 °F /  3.9 °C 30.2in /  1022.6hPa Calm     52% 0.000in /  0mm 0.00 W/m2
21:54 56.0 °F /  13.3 °C 39.0 °F /  3.9 °C 30.2in /  1022.6hPa Calm     52% 0.000in /  0mm 0.00 W/m2
21:59 56.0 °F /  13.3 °C 39.0 °F /  3.9 °C 30.2in /  1022.6hPa Calm     52% 0.000in /  0mm 0.00 W/m2
22:04 56.0 °F /  13.3 °C 39.0 °F /  3.9 °C 30.2in /  1022.6hPa Calm     52% 0.000in /  0mm 0.00 W/m2
22:09 56.0 °F /  13.3 °C 39.0 °F /  3.9 °C 30.2in /  1022.6hPa Calm     53% 0.000in /  0mm 0.00 W/m2
22:14 56.0 °F /  13.3 °C 39.0 °F /  3.9 °C 30.2in /  1022.6hPa Calm     53% 0.000in /  0mm 0.00 W/m2
22:19 56.0 °F /  13.3 °C 39.0 °F /  3.9 °C 30.2in /  1022.6hPa Calm     53% 0.000in /  0mm 0.00 W/m2
22:24 55.0 °F /  12.8 °C 39.0 °F /  3.9 °C 30.2in /  1022.6hPa Calm     54% 0.000in /  0mm 0.00 W/m2
22:29 55.0 °F /  12.8 °C 39.0 °F /  3.9 °C 30.2in /  1022.6hPa Calm     54% 0.000in /  0mm 0.00 W/m2
22:34 55.0 °F /  12.8 °C 39.0 °F /  3.9 °C 30.2in /  1022.6hPa Calm     54% 0.000in /  0mm 0.00 W/m2
22:39 55.0 °F /  12.8 °C 39.0 °F /  3.9 °C 30.2in /  1022.6hPa Calm     54% 0.000in /  0mm 0.00 W/m2
22:44 55.0 °F /  12.8 °C 38.0 °F /  3.3 °C 30.2in /  1022.6hPa Calm     54% 0.000in /  0mm 0.00 W/m2
22:49 55.0 °F /  12.8 °C 39.0 °F /  3.9 °C 30.2in /  1022.6hPa Calm     55% 0.000in /  0mm 0.00 W/m2
22:54 54.0 °F /  12.2 °C 38.0 °F /  3.3 °C 30.2in /  1022.6hPa Calm     55% 0.000in /  0mm 0.00 W/m2
22:59 54.0 °F /  12.2 °C 38.0 °F /  3.3 °C 30.2in /  1022.6hPa Calm     54% 0.000in /  0mm 0.00 W/m2
23:04 54.0 °F /  12.2 °C 39.0 °F /  3.9 °C 30.2in /  1022.6hPa Calm     56% 0.000in /  0mm 0.00 W/m2
23:09 54.0 °F /  12.2 °C 39.0 °F /  3.9 °C 30.2in /  1022.6hPa Calm     56% 0.000in /  0mm 0.00 W/m2
23:14 54.0 °F /  12.2 °C 38.0 °F /  3.3 °C 30.2in /  1022.6hPa Calm     56% 0.000in /  0mm 0.00 W/m2
23:19 54.0 °F /  12.2 °C 38.0 °F /  3.3 °C 30.2in /  1022.6hPa Calm     57% 0.000in /  0mm 0.00 W/m2
23:24 53.0 °F /  11.7 °C 38.0 °F /  3.3 °C 30.2in /  1022.6hPa Calm     56% 0.000in /  0mm 0.00 W/m2
23:29 53.0 °F /  11.7 °C 38.0 °F /  3.3 °C 30.2in /  1022.6hPa Calm     56% 0.000in /  0mm 0.00 W/m2
23:34 53.0 °F /  11.7 °C 38.0 °F /  3.3 °C 30.2in /  1022.6hPa Calm     56% 0.000in /  0mm 0.00 W/m2
23:39 53.0 °F /  11.7 °C 38.0 °F /  3.3 °C 30.2in /  1022.6hPa Calm     56% 0.000in /  0mm 0.00 W/m2
23:44 53.0 °F /  11.7 °C 38.0 °F /  3.3 °C 30.2in /  1022.6hPa Calm     57% 0.000in /  0mm 0.00 W/m2
23:49 53.0 °F /  11.7 °C 38.0 °F /  3.3 °C 30.2in /  1022.6hPa Calm     57% 0.000in /  0mm 0.00 W/m2
23:54 53.0 °F /  11.7 °C 38.0 °F /  3.3 °C 30.2in /  1022.6hPa Calm     57% 0.000in /  0mm 0.00 W/m2
23:59 53.0 °F /  11.7 °C 38.0 °F /  3.3 °C 30.2in /  1022.6hPa Calm     57% 0.000in /  0mm 0.00 W/m2
El Dorado Weather
Compliments of Weather Underground - 2 mb